SHT04E EGCC-EGLL
Flight info
| Callsign | SHT04E |
|---|---|
| Flight time | 0h 32m |
| Altitude | 17000 |
| Route | SANBA N859 HON |
| Aircraft | A20N/M-SDE2E3FGHIRWXY/LB1 |
Departure
| Time | 2026-05-07 20:18 |
|---|---|
| Airport | Manchester Airport (EGCC) |
Arrival
| Time | 2026-05-07 20:50 |
|---|---|
| Airport | London Heathrow Airport (EGLL) |
| Time | Latitude | Longitude | Altitude | Speed | Heading |
|---|---|---|---|---|---|
| 2026-05-07 19:57 | 53.35977 | -2.26980 | 218 ft | 0 kts | 290° |
| 2026-05-07 20:06 | 53.35973 | -2.26963 | 248 ft | 3 kts | 290° |
| 2026-05-07 20:06 | 53.35967 | -2.26935 | 248 ft | 3 kts | 290° |
| 2026-05-07 20:06 | 53.35960 | -2.26906 | 248 ft | 4 kts | 295° |
| 2026-05-07 20:07 | 53.35948 | -2.26870 | 248 ft | 1 kts | 311° |
| 2026-05-07 20:07 | 53.35940 | -2.26857 | 248 ft | 1 kts | 319° |
| 2026-05-07 20:07 | 53.35937 | -2.26850 | 248 ft | 3 kts | 338° |
| 2026-05-07 20:07 | 53.35955 | -2.26851 | 248 ft | 3 kts | 6° |
| 2026-05-07 20:08 | 53.35956 | -2.26851 | 249 ft | 0 kts | 7° |
| 2026-05-07 20:14 | 53.35974 | -2.26845 | 249 ft | 6 kts | 20° |
| 2026-05-07 20:15 | 53.36006 | -2.26805 | 249 ft | 7 kts | 43° |
| 2026-05-07 20:15 | 53.36046 | -2.26723 | 250 ft | 12 kts | 57° |
| 2026-05-07 20:15 | 53.36067 | -2.26600 | 252 ft | 8 kts | 134° |
| 2026-05-07 20:15 | 53.36054 | -2.26508 | 252 ft | 9 kts | 65° |
| 2026-05-07 20:16 | 53.36096 | -2.26415 | 254 ft | 11 kts | 52° |
| 2026-05-07 20:16 | 53.36141 | -2.26320 | 255 ft | 6 kts | 60° |
| 2026-05-07 20:16 | 53.36134 | -2.26282 | 255 ft | 5 kts | 134° |
| 2026-05-07 20:16 | 53.36091 | -2.26193 | 255 ft | 10 kts | 128° |
| 2026-05-07 20:17 | 53.36035 | -2.26139 | 254 ft | 6 kts | 209° |
| 2026-05-07 20:17 | 53.35922 | -2.26351 | 253 ft | 64 kts | 231° |
| 2026-05-07 20:17 | 53.35465 | -2.27294 | 244 ft | 141 kts | 231° |
| 2026-05-07 20:17 | 53.34794 | -2.28653 | 769 ft | 158 kts | 231° |
| 2026-05-07 20:18 | 53.34071 | -2.30141 | 1504 ft | 173 kts | 231° |
| 2026-05-07 20:18 | 53.33280 | -2.31791 | 2155 ft | 191 kts | 231° |
| 2026-05-07 20:18 | 53.32409 | -2.33619 | 2714 ft | 213 kts | 234° |
| 2026-05-07 20:18 | 53.31869 | -2.36033 | 3285 ft | 234 kts | 265° |
| 2026-05-07 20:19 | 53.31928 | -2.38875 | 3943 ft | 255 kts | 276° |
| 2026-05-07 20:19 | 53.31976 | -2.41893 | 4823 ft | 263 kts | 259° |
| 2026-05-07 20:19 | 53.31233 | -2.44680 | 5838 ft | 267 kts | 232° |
| 2026-05-07 20:19 | 53.29806 | -2.46611 | 6807 ft | 272 kts | 205° |
| 2026-05-07 20:20 | 53.27957 | -2.47286 | 7769 ft | 277 kts | 178° |
| 2026-05-07 20:20 | 53.26087 | -2.46497 | 8724 ft | 282 kts | 152° |
| 2026-05-07 20:20 | 53.24567 | -2.44426 | 9658 ft | 287 kts | 134° |
| 2026-05-07 20:20 | 53.23091 | -2.42129 | 10490 ft | 296 kts | 141° |
| 2026-05-07 20:21 | 53.21359 | -2.40047 | 10907 ft | 319 kts | 147° |
| 2026-05-07 20:21 | 53.19380 | -2.38100 | 11313 ft | 339 kts | 151° |
| 2026-05-07 20:21 | 53.17277 | -2.36234 | 12114 ft | 344 kts | 153° |
| 2026-05-07 20:21 | 53.15145 | -2.34392 | 12993 ft | 347 kts | 153° |
| 2026-05-07 20:22 | 53.14998 | -2.34265 | 13053 ft | 347 kts | 153° |
| 2026-05-07 20:22 | 53.13785 | -2.33191 | 13486 ft | 340 kts | 150° |
| 2026-05-07 20:22 | 53.11679 | -2.31278 | 13796 ft | 353 kts | 153° |
| 2026-05-07 20:23 | 53.09479 | -2.29406 | 14553 ft | 357 kts | 153° |
| 2026-05-07 20:23 | 53.07249 | -2.27529 | 15341 ft | 362 kts | 153° |
| 2026-05-07 20:23 | 53.04995 | -2.25611 | 16086 ft | 366 kts | 153° |
| 2026-05-07 20:23 | 53.02717 | -2.23653 | 16708 ft | 371 kts | 153° |
| 2026-05-07 20:24 | 53.00405 | -2.21653 | 16941 ft | 384 kts | 153° |
| 2026-05-07 20:24 | 52.97971 | -2.19543 | 17001 ft | 406 kts | 153° |
| 2026-05-07 20:24 | 52.95399 | -2.17314 | 17001 ft | 427 kts | 153° |
| 2026-05-07 20:24 | 52.92741 | -2.15012 | 17000 ft | 433 kts | 153° |
| 2026-05-07 20:25 | 52.90068 | -2.12700 | 17000 ft | 433 kts | 153° |
| 2026-05-07 20:25 | 52.87432 | -2.10425 | 17000 ft | 433 kts | 153° |
| 2026-05-07 20:25 | 52.84728 | -2.08093 | 17000 ft | 433 kts | 153° |
| 2026-05-07 20:25 | 52.82088 | -2.05821 | 17000 ft | 433 kts | 153° |
| 2026-05-07 20:26 | 52.79417 | -2.03525 | 17000 ft | 433 kts | 153° |
| 2026-05-07 20:26 | 52.76742 | -2.01229 | 17000 ft | 433 kts | 153° |
| 2026-05-07 20:26 | 52.74067 | -1.98936 | 17000 ft | 434 kts | 153° |
| 2026-05-07 20:26 | 52.71390 | -1.96646 | 17000 ft | 433 kts | 153° |
| 2026-05-07 20:27 | 52.68714 | -1.94359 | 17000 ft | 434 kts | 153° |
| 2026-05-07 20:27 | 52.66040 | -1.92077 | 17000 ft | 433 kts | 153° |
| 2026-05-07 20:27 | 52.63361 | -1.89794 | 17000 ft | 433 kts | 153° |
| 2026-05-07 20:27 | 52.60686 | -1.87518 | 17000 ft | 433 kts | 153° |
| 2026-05-07 20:28 | 52.58043 | -1.85271 | 17000 ft | 433 kts | 153° |
| 2026-05-07 20:28 | 52.55367 | -1.83001 | 17000 ft | 433 kts | 153° |
| 2026-05-07 20:28 | 52.52688 | -1.80730 | 17000 ft | 433 kts | 153° |
| 2026-05-07 20:28 | 52.50011 | -1.78465 | 17000 ft | 433 kts | 153° |
| 2026-05-07 20:29 | 52.47335 | -1.76203 | 17000 ft | 433 kts | 153° |
| 2026-05-07 20:29 | 52.44659 | -1.73944 | 17000 ft | 433 kts | 153° |
| 2026-05-07 20:29 | 52.41979 | -1.71685 | 17000 ft | 433 kts | 153° |
| 2026-05-07 20:29 | 52.39298 | -1.69430 | 17000 ft | 433 kts | 153° |
| 2026-05-07 20:30 | 52.36651 | -1.67092 | 17000 ft | 433 kts | 149° |
| 2026-05-07 20:30 | 52.34174 | -1.64282 | 17000 ft | 433 kts | 142° |
| 2026-05-07 20:30 | 52.31950 | -1.61178 | 16999 ft | 413 kts | 139° |
| 2026-05-07 20:30 | 52.29879 | -1.58226 | 16999 ft | 391 kts | 139° |
| 2026-05-07 20:31 | 52.27875 | -1.55382 | 16999 ft | 371 kts | 139° |
| 2026-05-07 20:31 | 52.25937 | -1.52644 | 17001 ft | 371 kts | 139° |
| 2026-05-07 20:31 | 52.23974 | -1.49882 | 17000 ft | 373 kts | 139° |
| 2026-05-07 20:31 | 52.22011 | -1.47124 | 17000 ft | 372 kts | 139° |
| 2026-05-07 20:32 | 52.20047 | -1.44371 | 17000 ft | 372 kts | 139° |
| 2026-05-07 20:32 | 52.18082 | -1.41623 | 17000 ft | 372 kts | 140° |
| 2026-05-07 20:32 | 52.16115 | -1.38876 | 16995 ft | 372 kts | 140° |
| 2026-05-07 20:32 | 52.14157 | -1.36146 | 16803 ft | 370 kts | 140° |
| 2026-05-07 20:33 | 52.12232 | -1.33464 | 16406 ft | 368 kts | 140° |
| 2026-05-07 20:33 | 52.10296 | -1.30770 | 15886 ft | 365 kts | 140° |
| 2026-05-07 20:33 | 52.08375 | -1.28099 | 15356 ft | 362 kts | 140° |
| 2026-05-07 20:33 | 52.06471 | -1.25455 | 15085 ft | 358 kts | 140° |
| 2026-05-07 20:34 | 52.04566 | -1.22813 | 15006 ft | 362 kts | 140° |
| 2026-05-07 20:34 | 52.02654 | -1.20164 | 15003 ft | 362 kts | 140° |
| 2026-05-07 20:34 | 52.00738 | -1.17513 | 14999 ft | 362 kts | 140° |
| 2026-05-07 20:34 | 51.98823 | -1.14866 | 15000 ft | 362 kts | 140° |
| 2026-05-07 20:35 | 51.96910 | -1.12225 | 15001 ft | 361 kts | 140° |
| 2026-05-07 20:35 | 51.94992 | -1.09580 | 15001 ft | 361 kts | 140° |
| 2026-05-07 20:35 | 51.93077 | -1.06942 | 15003 ft | 361 kts | 140° |
| 2026-05-07 20:35 | 51.91190 | -1.04344 | 14999 ft | 361 kts | 140° |
| 2026-05-07 20:36 | 51.89274 | -1.01709 | 15003 ft | 361 kts | 140° |
| 2026-05-07 20:36 | 51.87358 | -0.99077 | 14995 ft | 361 kts | 139° |
| 2026-05-07 20:36 | 51.85616 | -0.96198 | 14931 ft | 354 kts | 129° |
| 2026-05-07 20:36 | 51.84274 | -0.92968 | 14785 ft | 338 kts | 118° |
| 2026-05-07 20:37 | 51.83266 | -0.89652 | 14609 ft | 320 kts | 116° |
| 2026-05-07 20:37 | 51.82351 | -0.86611 | 14453 ft | 302 kts | 116° |
| 2026-05-07 20:37 | 51.81450 | -0.83653 | 14300 ft | 284 kts | 116° |
| 2026-05-07 20:37 | 51.80593 | -0.80853 | 14061 ft | 274 kts | 116° |
| 2026-05-07 20:38 | 51.79751 | -0.78114 | 13746 ft | 272 kts | 116° |
| 2026-05-07 20:38 | 51.78922 | -0.75427 | 13396 ft | 270 kts | 116° |
| 2026-05-07 20:38 | 51.78087 | -0.72722 | 12974 ft | 268 kts | 116° |
| 2026-05-07 20:38 | 51.77257 | -0.70037 | 12452 ft | 267 kts | 116° |
| 2026-05-07 20:39 | 51.76433 | -0.67373 | 11947 ft | 264 kts | 116° |
| 2026-05-07 20:39 | 51.75614 | -0.64726 | 11386 ft | 262 kts | 116° |
| 2026-05-07 20:39 | 51.74805 | -0.62113 | 10848 ft | 260 kts | 116° |
| 2026-05-07 20:39 | 51.73998 | -0.59510 | 10289 ft | 258 kts | 116° |
| 2026-05-07 20:40 | 51.73197 | -0.56932 | 9757 ft | 256 kts | 118° |
| 2026-05-07 20:40 | 51.72063 | -0.54789 | 9186 ft | 253 kts | 147° |
| 2026-05-07 20:40 | 51.70437 | -0.53812 | 8615 ft | 250 kts | 176° |
| 2026-05-07 20:40 | 51.68775 | -0.54240 | 8065 ft | 247 kts | 206° |
| 2026-05-07 20:41 | 51.67474 | -0.55927 | 7512 ft | 244 kts | 236° |
| 2026-05-07 20:41 | 51.66593 | -0.58297 | 7106 ft | 243 kts | 240° |
| 2026-05-07 20:41 | 51.65761 | -0.60654 | 6732 ft | 241 kts | 241° |
| 2026-05-07 20:41 | 51.64933 | -0.62996 | 6358 ft | 240 kts | 241° |
| 2026-05-07 20:42 | 51.64111 | -0.65326 | 5987 ft | 239 kts | 240° |
| 2026-05-07 20:42 | 51.63293 | -0.67641 | 5617 ft | 237 kts | 240° |
| 2026-05-07 20:42 | 51.62478 | -0.69947 | 5247 ft | 236 kts | 240° |
| 2026-05-07 20:42 | 51.61670 | -0.72236 | 4883 ft | 235 kts | 240° |
| 2026-05-07 20:43 | 51.60866 | -0.74512 | 4522 ft | 234 kts | 240° |
| 2026-05-07 20:43 | 51.59891 | -0.76528 | 4155 ft | 233 kts | 217° |
| 2026-05-07 20:43 | 51.58417 | -0.77453 | 3963 ft | 232 kts | 185° |
| 2026-05-07 20:43 | 51.56789 | -0.77514 | 3918 ft | 234 kts | 180° |
| 2026-05-07 20:44 | 51.55170 | -0.77526 | 3915 ft | 229 kts | 180° |
| 2026-05-07 20:44 | 51.53644 | -0.77536 | 3937 ft | 208 kts | 180° |
| 2026-05-07 20:44 | 51.52269 | -0.77543 | 3866 ft | 189 kts | 180° |
| 2026-05-07 20:44 | 51.50960 | -0.77548 | 3515 ft | 188 kts | 180° |
| 2026-05-07 20:45 | 51.49660 | -0.77460 | 3257 ft | 183 kts | 168° |
| 2026-05-07 20:45 | 51.48534 | -0.76464 | 3194 ft | 192 kts | 132° |
| 2026-05-07 20:45 | 51.47916 | -0.74604 | 3135 ft | 191 kts | 106° |
| 2026-05-07 20:45 | 51.47708 | -0.72537 | 3003 ft | 189 kts | 94° |
| 2026-05-07 20:46 | 51.47670 | -0.70464 | 2757 ft | 183 kts | 90° |
| 2026-05-07 20:46 | 51.47679 | -0.68473 | 2512 ft | 175 kts | 89° |
| 2026-05-07 20:46 | 51.47684 | -0.66581 | 2281 ft | 163 kts | 89° |
| 2026-05-07 20:46 | 51.47691 | -0.64719 | 2066 ft | 169 kts | 89° |
| 2026-05-07 20:47 | 51.47697 | -0.62855 | 1857 ft | 165 kts | 89° |
| 2026-05-07 20:47 | 51.47704 | -0.61016 | 1632 ft | 165 kts | 89° |
| 2026-05-07 20:47 | 51.47707 | -0.59955 | 1497 ft | 156 kts | 89° |
| 2026-05-07 20:47 | 51.47713 | -0.58318 | 1295 ft | 141 kts | 89° |
| 2026-05-07 20:48 | 51.47719 | -0.56794 | 1118 ft | 138 kts | 89° |
| 2026-05-07 20:48 | 51.47724 | -0.55262 | 936 ft | 137 kts | 89° |
| 2026-05-07 20:48 | 51.47735 | -0.53746 | 780 ft | 136 kts | 88° |
| 2026-05-07 20:48 | 51.47755 | -0.52231 | 598 ft | 136 kts | 90° |
| 2026-05-07 20:49 | 51.47748 | -0.50726 | 405 ft | 135 kts | 89° |
| 2026-05-07 20:49 | 51.47751 | -0.49234 | 248 ft | 134 kts | 90° |
| 2026-05-07 20:49 | 51.47753 | -0.47739 | 86 ft | 130 kts | 90° |
| 2026-05-07 20:49 | 51.47757 | -0.46585 | 93 ft | 75 kts | 90° |
| 2026-05-07 20:50 | 51.47754 | -0.46214 | 90 ft | 13 kts | 104° |
| 2026-05-07 20:50 | 51.47673 | -0.46109 | 87 ft | 11 kts | 145° |
| 2026-05-07 20:50 | 51.47631 | -0.46063 | 89 ft | 3 kts | 145° |
| 2026-05-07 20:50 | 51.47604 | -0.46049 | 89 ft | 5 kts | 186° |
| 2026-05-07 20:51 | 51.47593 | -0.46090 | 87 ft | 5 kts | 267° |
| 2026-05-07 20:51 | 51.47591 | -0.46171 | 86 ft | 9 kts | 268° |
| 2026-05-07 20:51 | 51.47590 | -0.46293 | 87 ft | 13 kts | 270° |
| 2026-05-07 20:51 | 51.47590 | -0.46466 | 87 ft | 18 kts | 270° |
| 2026-05-07 20:52 | 51.47590 | -0.46679 | 87 ft | 20 kts | 270° |
| 2026-05-07 20:52 | 51.47582 | -0.46910 | 90 ft | 21 kts | 272° |
| 2026-05-07 20:52 | 51.47581 | -0.47155 | 90 ft | 23 kts | 269° |
| 2026-05-07 20:52 | 51.47580 | -0.47422 | 88 ft | 25 kts | 268° |
| 2026-05-07 20:53 | 51.47578 | -0.47710 | 89 ft | 27 kts | 269° |
| 2026-05-07 20:53 | 51.47577 | -0.47990 | 89 ft | 20 kts | 270° |
| 2026-05-07 20:53 | 51.47577 | -0.48206 | 89 ft | 19 kts | 270° |
| 2026-05-07 20:53 | 51.47577 | -0.48401 | 86 ft | 15 kts | 269° |
| 2026-05-07 20:54 | 51.47525 | -0.48477 | 88 ft | 11 kts | 182° |
| 2026-05-07 20:54 | 51.47438 | -0.48476 | 86 ft | 12 kts | 178° |
| 2026-05-07 20:54 | 51.47395 | -0.48512 | 90 ft | 5 kts | 288° |
| 2026-05-07 20:54 | 51.47399 | -0.48576 | 88 ft | 7 kts | 268° |
| 2026-05-07 20:55 | 51.47399 | -0.48592 | 87 ft | 0 kts | 268° |